Skip Navigation LinksHome page > Weather > Current weather Skip Navigation Links

Current Weather

Metropolitan Oakland Intl, Oakland, Calif.

For information only: do not use for flight planning or navigation.
Latest weather
Observation time Friday, October 30, 2020 1:53 PM PDT
Local time Friday, October 30, 2020 2:44 PM PDT
Flight conditions Visual Meteorological Conditions
Winds
Wind direction West-Northwest (300°)
Wind speed 13 mph
Visibility 10 mi.
Sky condition
Ceiling unlimited
Cloud layer few clouds 1,200 ft.
Temperature 69°F
Dewpoint 50°F
Altimeter 30.05 in.Hg
Pressure change last 3 hours0.05 in.Hg
Pressure falling more quickly
Derived measurements
Relative humidity 51%
Density altitude 689 ft.
Sea-level pressure 30.05 in.Hg
Remarks
Automated weather observing station with precipitation discriminator.
METAR KOAK 302053Z 30011KT 10SM FEW012 21/10 A3005 RMK AO2 SLP175 T02060100 58016

Settings

Location code

InnerDrive.Weather 4.0.6770.0 Release CLR 4.0.30319.42000
Copyright ©2018 Inner Drive Technology. All rights reserved. Portions Copyright ©1986-2018 David Braverman.

Find weather

Site navigation


Skip Navigation Links

Place info

Page info

PayPal - The safer, easier way to pay online!

Return home.

Copyright ©2020 Inner Drive Technology. Purveyors of fine, hand-crafted computer software. Page printed 2020-10-30T21:44:51 UTC.